sensor_id;sensor_type;location;lat;lon;timestamp;pressure;altitude;pressure_sealevel;temperature;humidity
32875;BME280;40468;42.128;24.750;2023-04-22T00:00:03;99450.47;;;13.74;75.45
32875;BME280;40468;42.128;24.750;2023-04-22T00:01:36;99453.06;;;13.74;75.34
32875;BME280;40468;42.128;24.750;2023-04-22T00:03:07;99454.03;;;13.73;75.71
32875;BME280;40468;42.128;24.750;2023-04-22T00:04:39;99461.56;;;13.77;75.44
32875;BME280;40468;42.128;24.750;2023-04-22T00:06:13;99462.31;;;13.79;75.41
32875;BME280;40468;42.128;24.750;2023-04-22T00:07:45;99459.69;;;13.79;75.53
32875;BME280;40468;42.128;24.750;2023-04-22T00:09:17;99456.25;;;13.79;75.60
32875;BME280;40468;42.128;24.750;2023-04-22T00:10:49;99461.28;;;13.82;75.46
32875;BME280;40468;42.128;24.750;2023-04-22T00:12:21;99452.59;;;13.81;75.50
32875;BME280;40468;42.128;24.750;2023-04-22T00:13:53;99458.75;;;13.80;75.56
32875;BME280;40468;42.128;24.750;2023-04-22T00:15:25;99445.84;;;13.77;75.41
32875;BME280;40468;42.128;24.750;2023-04-22T00:16:57;99456.06;;;13.82;75.49
32875;BME280;40468;42.128;24.750;2023-04-22T00:18:29;99436.41;;;13.75;75.57
32875;BME280;40468;42.128;24.750;2023-04-22T00:20:01;99447.25;;;13.83;75.33
32875;BME280;40468;42.128;24.750;2023-04-22T00:21:35;99457.31;;;13.89;75.63
32875;BME280;40468;42.128;24.750;2023-04-22T00:23:07;99451.34;;;13.87;74.98
32875;BME280;40468;42.128;24.750;2023-04-22T00:24:38;99450.41;;;13.88;75.21
32875;BME280;40468;42.128;24.750;2023-04-22T00:26:10;99441.25;;;13.81;74.98
32875;BME280;40468;42.128;24.750;2023-04-22T00:27:42;99444.06;;;13.78;74.79
32875;BME280;40468;42.128;24.750;2023-04-22T00:29:14;99438.97;;;13.76;74.70
32875;BME280;40468;42.128;24.750;2023-04-22T00:30:46;99444.94;;;13.78;74.63
32875;BME280;40468;42.128;24.750;2023-04-22T00:32:18;99445.84;;;13.77;74.56
32875;BME280;40468;42.128;24.750;2023-04-22T00:33:49;99441.56;;;13.76;74.38
32875;BME280;40468;42.128;24.750;2023-04-22T00:35:21;99443.34;;;13.76;74.50
32875;BME280;40468;42.128;24.750;2023-04-22T00:36:53;99444.38;;;13.73;74.39
32875;BME280;40468;42.128;24.750;2023-04-22T00:38:26;99433.47;;;13.67;74.83
32875;BME280;40468;42.128;24.750;2023-04-22T00:39:58;99436.41;;;13.75;74.69
32875;BME280;40468;42.128;24.750;2023-04-22T00:41:31;99433.91;;;13.73;74.42
32875;BME280;40468;42.128;24.750;2023-04-22T00:43:03;99442.41;;;13.77;74.52
32875;BME280;40468;42.128;24.750;2023-04-22T00:44:35;99437.38;;;13.74;74.31
32875;BME280;40468;42.128;24.750;2023-04-22T00:46:06;99443.16;;;13.79;74.15
32875;BME280;40468;42.128;24.750;2023-04-22T00:47:40;99448.41;;;13.79;74.29
32875;BME280;40468;42.128;24.750;2023-04-22T00:49:12;99448.41;;;13.79;74.08
32875;BME280;40468;42.128;24.750;2023-04-22T00:50:45;99445.31;;;13.72;74.09
32875;BME280;40468;42.128;24.750;2023-04-22T00:52:18;99450.53;;;13.72;74.17
32875;BME280;40468;42.128;24.750;2023-04-22T00:53:49;99456.53;;;13.74;74.25
32875;BME280;40468;42.128;24.750;2023-04-22T00:55:22;99448.88;;;13.71;74.18
32875;BME280;40468;42.128;24.750;2023-04-22T00:56:53;99462.50;;;13.76;74.08
32875;BME280;40468;42.128;24.750;2023-04-22T00:58:27;99460.81;;;13.75;74.17
32875;BME280;40468;42.128;24.750;2023-04-22T00:59:59;99454.09;;;13.71;73.91
32875;BME280;40468;42.128;24.750;2023-04-22T01:01:32;99466.78;;;13.77;74.00
32875;BME280;40468;42.128;24.750;2023-04-22T01:03:05;99468.38;;;13.80;74.14
32875;BME280;40468;42.128;24.750;2023-04-22T01:04:38;99410.44;;;13.45;74.18
32875;BME280;40468;42.128;24.750;2023-04-22T01:06:09;99455.06;;;13.70;74.23
32875;BME280;40468;42.128;24.750;2023-04-22T01:07:42;99465.88;;;13.78;73.97
32875;BME280;40468;42.128;24.750;2023-04-22T01:09:13;99449.91;;;13.69;74.07
32875;BME280;40468;42.128;24.750;2023-04-22T01:10:45;99465.31;;;13.73;73.78
32875;BME280;40468;42.128;24.750;2023-04-22T01:12:17;99465.22;;;13.75;73.94
32875;BME280;40468;42.128;24.750;2023-04-22T01:13:49;99467.00;;;13.74;74.03
32875;BME280;40468;42.128;24.750;2023-04-22T01:15:22;99461.75;;;13.74;74.12
32875;BME280;40468;42.128;24.750;2023-04-22T01:16:54;99410.44;;;13.45;74.06
32875;BME280;40468;42.128;24.750;2023-04-22T01:18:27;99461.88;;;13.73;73.87
32875;BME280;40468;42.128;24.750;2023-04-22T01:19:59;99460.91;;;13.74;73.86
32875;BME280;40468;42.128;24.750;2023-04-22T01:21:34;99459.06;;;13.76;74.20
32875;BME280;40468;42.128;24.750;2023-04-22T01:23:14;99465.13;;;13.76;73.72
32875;BME280;40468;42.128;24.750;2023-04-22T01:24:48;99463.44;;;13.75;73.87
32875;BME280;40468;42.128;24.750;2023-04-22T01:26:20;99457.47;;;13.73;73.79
32875;BME280;40468;42.128;24.750;2023-04-22T01:27:52;99459.88;;;13.76;73.84
32875;BME280;40468;42.128;24.750;2023-04-22T01:29:24;99445.31;;;13.72;73.47
32875;BME280;40468;42.128;24.750;2023-04-22T01:30:56;99449.50;;;13.75;73.57
32875;BME280;40468;42.128;24.750;2023-04-22T01:32:28;99453.91;;;13.74;73.89
32875;BME280;40468;42.128;24.750;2023-04-22T01:34:01;99448.78;;;13.73;73.71
32875;BME280;40468;42.128;24.750;2023-04-22T01:35:33;99451.41;;;13.73;73.72
32875;BME280;40468;42.128;24.750;2023-04-22T01:37:07;99451.41;;;13.73;73.59
32875;BME280;40468;42.128;24.750;2023-04-22T01:38:40;99457.34;;;13.75;73.51
32875;BME280;40468;42.128;24.750;2023-04-22T01:40:12;99453.91;;;13.74;73.57
32875;BME280;40468;42.128;24.750;2023-04-22T01:41:49;99456.53;;;13.74;73.71
32875;BME280;40468;42.128;24.750;2023-04-22T01:43:21;99460.91;;;13.74;73.62
32875;BME280;40468;42.128;24.750;2023-04-22T01:44:53;99457.56;;;13.72;73.47
32875;BME280;40468;42.128;24.750;2023-04-22T01:46:26;99453.34;;;13.69;73.39
32875;BME280;40468;42.128;24.750;2023-04-22T01:47:57;99457.88;;;13.67;73.64
32875;BME280;40468;42.128;24.750;2023-04-22T01:49:29;99458.97;;;13.63;73.72
32875;BME280;40468;42.128;24.750;2023-04-22T01:51:01;99455.63;;;13.61;74.03
32875;BME280;40468;42.128;24.750;2023-04-22T01:52:33;99450.69;;;13.56;74.10
32875;BME280;40468;42.128;24.750;2023-04-22T01:54:08;99454.44;;;13.52;74.21
32875;BME280;40468;42.128;24.750;2023-04-22T01:55:40;99446.03;;;13.47;74.27
32875;BME280;40468;42.128;24.750;2023-04-22T01:57:12;99451.47;;;13.44;74.53
32875;BME280;40468;42.128;24.750;2023-04-22T01:58:45;99451.66;;;13.41;74.74
32875;BME280;40468;42.128;24.750;2023-04-22T02:00:17;99437.25;;;13.34;74.72
32875;BME280;40468;42.128;24.750;2023-04-22T02:01:49;99442.31;;;13.37;75.07
32875;BME280;40468;42.128;24.750;2023-04-22T02:03:20;99434.84;;;13.31;74.94
32875;BME280;40468;42.128;24.750;2023-04-22T02:04:52;99444.25;;;13.33;75.36
32875;BME280;40468;42.128;24.750;2023-04-22T02:06:24;99443.53;;;13.31;75.24
32875;BME280;40468;42.128;24.750;2023-04-22T02:07:55;99432.88;;;13.20;75.21
32875;BME280;40468;42.128;24.750;2023-04-22T02:09:28;99441.81;;;13.16;74.94
32875;BME280;40468;42.128;24.750;2023-04-22T02:11:00;99437.91;;;13.09;75.11
32875;BME280;40468;42.128;24.750;2023-04-22T02:12:31;99441.47;;;13.08;75.37
32875;BME280;40468;42.128;24.750;2023-04-22T02:14:03;99443.41;;;13.04;75.35
32875;BME280;40468;42.128;24.750;2023-04-22T02:15:35;99429.69;;;13.01;76.04
32875;BME280;40468;42.128;24.750;2023-04-22T02:17:08;99428.03;;;13.00;75.92
32875;BME280;40468;42.128;24.750;2023-04-22T02:18:39;99432.13;;;13.04;76.30
32875;BME280;40468;42.128;24.750;2023-04-22T02:20:11;99437.16;;;13.07;76.30
32875;BME280;40468;42.128;24.750;2023-04-22T02:21:42;99431.19;;;13.05;76.33
32875;BME280;40468;42.128;24.750;2023-04-22T02:23:14;99432.88;;;13.06;76.46
32875;BME280;40468;42.128;24.750;2023-04-22T02:24:48;99438.28;;;13.03;76.41
32875;BME280;40468;42.128;24.750;2023-04-22T02:26:19;99443.13;;;12.94;76.39
32875;BME280;40468;42.128;24.750;2023-04-22T02:27:50;99450.97;;;12.94;76.48
32875;BME280;40468;42.128;24.750;2023-04-22T02:29:22;99441.34;;;12.95;76.59
32875;BME280;40468;42.128;24.750;2023-04-22T02:30:54;99437.91;;;12.94;77.00
32875;BME280;40468;42.128;24.750;2023-04-22T02:32:25;99440.81;;;12.90;76.83
32875;BME280;40468;42.128;24.750;2023-04-22T02:33:57;99446.59;;;12.95;76.97
32875;BME280;40468;42.128;24.750;2023-04-22T02:35:29;99442.50;;;12.91;77.02
32875;BME280;40468;42.128;24.750;2023-04-22T02:37:01;99426.53;;;12.81;77.00
32875;BME280;40468;42.128;24.750;2023-04-22T02:38:33;99426.53;;;12.81;77.53
32875;BME280;40468;42.128;24.750;2023-04-22T02:40:07;99439.13;;;12.89;77.20
32875;BME280;40468;42.128;24.750;2023-04-22T02:41:39;99447.91;;;12.88;77.69
32875;BME280;40468;42.128;24.750;2023-04-22T02:43:11;99444.34;;;12.89;77.47
32875;BME280;40468;42.128;24.750;2023-04-22T02:44:43;99430.81;;;12.82;77.75
32875;BME280;40468;42.128;24.750;2023-04-22T02:46:14;99446.03;;;12.90;77.74
32875;BME280;40468;42.128;24.750;2023-04-22T02:47:46;99443.50;;;12.88;77.57
32875;BME280;40468;42.128;24.750;2023-04-22T02:49:18;99442.75;;;12.86;77.81
32875;BME280;40468;42.128;24.750;2023-04-22T02:50:50;99449.88;;;12.84;77.60
32875;BME280;40468;42.128;24.750;2023-04-22T02:52:22;99450.78;;;12.83;77.64
32875;BME280;40468;42.128;24.750;2023-04-22T02:53:52;99452.66;;;12.81;77.77
32875;BME280;40468;42.128;24.750;2023-04-22T02:55:26;99450.97;;;12.80;78.14
32875;BME280;40468;42.128;24.750;2023-04-22T02:56:57;99458.44;;;12.72;77.89
32875;BME280;40468;42.128;24.750;2023-04-22T02:58:30;99455.81;;;12.72;78.01
32875;BME280;40468;42.128;24.750;2023-04-22T03:00:03;99454.88;;;12.73;77.78
32875;BME280;40468;42.128;24.750;2023-04-22T03:01:35;99456.56;;;12.74;78.09
32875;BME280;40468;42.128;24.750;2023-04-22T03:03:06;99453.94;;;12.74;78.03
32875;BME280;40468;42.128;24.750;2023-04-22T03:04:37;99443.03;;;12.67;77.86
32875;BME280;40468;42.128;24.750;2023-04-22T03:06:09;99457.69;;;12.70;78.01
32875;BME280;40468;42.128;24.750;2023-04-22T03:07:41;99455.06;;;12.70;78.39
32875;BME280;40468;42.128;24.750;2023-04-22T03:09:12;99456.16;;;12.66;78.38
32875;BME280;40468;42.128;24.750;2023-04-22T03:10:45;99456.91;;;12.68;78.40
32875;BME280;40468;42.128;24.750;2023-04-22T03:12:16;99441.78;;;12.59;78.49
32875;BME280;40468;42.128;24.750;2023-04-22T03:13:48;99444.41;;;12.59;78.27
32875;BME280;40468;42.128;24.750;2023-04-22T03:15:20;99444.22;;;12.62;78.50
32875;BME280;40468;42.128;24.750;2023-04-22T03:16:52;99453.56;;;12.66;78.48
32875;BME280;40468;42.128;24.750;2023-04-22T03:18:23;99454.59;;;12.63;78.53
32875;BME280;40468;42.128;24.750;2023-04-22T03:19:55;99449.56;;;12.60;78.68
32875;BME280;40468;42.128;24.750;2023-04-22T03:21:26;99441.91;;;12.57;78.38
32875;BME280;40468;42.128;24.750;2023-04-22T03:22:58;99447.97;;;12.58;78.51
32875;BME280;40468;42.128;24.750;2023-04-22T03:24:30;99451.59;;;12.55;78.65
32875;BME280;40468;42.128;24.750;2023-04-22T03:26:04;99450.56;;;12.58;78.36
32875;BME280;40468;42.128;24.750;2023-04-22T03:27:36;99422.16;;;12.37;78.68
32875;BME280;40468;42.128;24.750;2023-04-22T03:29:07;99448.88;;;12.57;78.74
32875;BME280;40468;42.128;24.750;2023-04-22T03:30:38;99450.66;;;12.56;78.70
32875;BME280;40468;42.128;24.750;2023-04-22T03:32:10;99455.03;;;12.56;78.36
32875;BME280;40468;42.128;24.750;2023-04-22T03:33:42;99454.28;;;12.53;78.71
32875;BME280;40468;42.128;24.750;2023-04-22T03:35:14;99460.44;;;12.52;78.64
32875;BME280;40468;42.128;24.750;2023-04-22T03:36:45;99457.00;;;12.52;78.18
32875;BME280;40468;42.128;24.750;2023-04-22T03:38:17;99453.91;;;12.45;78.07
32875;BME280;40468;42.128;24.750;2023-04-22T03:39:48;99459.03;;;12.47;78.09
32875;BME280;40468;42.128;24.750;2023-04-22T03:41:21;99459.22;;;12.44;78.14
32875;BME280;40468;42.128;24.750;2023-04-22T03:42:55;99464.78;;;12.38;77.95
32875;BME280;40468;42.128;24.750;2023-04-22T03:44:27;99463.28;;;12.34;77.57
32875;BME280;40468;42.128;24.750;2023-04-22T03:45:59;99465.31;;;12.28;77.51
32875;BME280;40468;42.128;24.750;2023-04-22T03:47:30;99473.34;;;12.25;77.32
32875;BME280;40468;42.128;24.750;2023-04-22T03:49:02;99452.47;;;12.10;77.14
32875;BME280;40468;42.128;24.750;2023-04-22T03:50:33;99476.28;;;12.19;76.74
32875;BME280;40468;42.128;24.750;2023-04-22T03:52:05;99473.44;;;12.08;76.70
32875;BME280;40468;42.128;24.750;2023-04-22T03:53:36;99475.22;;;12.07;76.71
32875;BME280;40468;42.128;24.750;2023-04-22T03:55:08;99488.09;;;12.11;76.74
32875;BME280;40468;42.128;24.750;2023-04-22T03:56:41;99487.25;;;12.10;76.55
32875;BME280;40468;42.128;24.750;2023-04-22T03:58:13;99490.78;;;12.09;76.54
32875;BME280;40468;42.128;24.750;2023-04-22T03:59:44;99484.91;;;12.05;76.47
32875;BME280;40468;42.128;24.750;2023-04-22T04:01:16;99500.38;;;12.09;76.71
32875;BME280;40468;42.128;24.750;2023-04-22T04:02:48;99496.00;;;12.09;76.38
32875;BME280;40468;42.128;24.750;2023-04-22T04:04:20;99486.91;;;12.00;76.41
32875;BME280;40468;42.128;24.750;2023-04-22T04:05:53;99496.84;;;12.10;76.28
32875;BME280;40468;42.128;24.750;2023-04-22T04:07:25;99496.84;;;12.10;76.43
32875;BME280;40468;42.128;24.750;2023-04-22T04:08:57;99493.66;;;12.04;76.21
32875;BME280;40468;42.128;24.750;2023-04-22T04:10:28;99498.78;;;12.06;76.42
32875;BME280;40468;42.128;24.750;2023-04-22T04:12:01;99500.38;;;12.09;76.12
32875;BME280;40468;42.128;24.750;2023-04-22T04:13:33;99508.66;;;12.01;76.22
32875;BME280;40468;42.128;24.750;2023-04-22T04:15:06;99508.66;;;12.01;76.56
32875;BME280;40468;42.128;24.750;2023-04-22T04:16:38;99481.38;;;11.91;76.52
32875;BME280;40468;42.128;24.750;2023-04-22T04:18:10;99499.13;;;12.00;76.28
32875;BME280;40468;42.128;24.750;2023-04-22T04:19:41;99508.56;;;12.02;76.70
32875;BME280;40468;42.128;24.750;2023-04-22T04:21:13;99511.16;;;12.02;76.62
32875;BME280;40468;42.128;24.750;2023-04-22T04:22:45;99516.38;;;12.02;77.10
32875;BME280;40468;42.128;24.750;2023-04-22T04:24:17;99511.16;;;12.02;77.12
32875;BME280;40468;42.128;24.750;2023-04-22T04:25:49;99516.31;;;12.04;77.17
32875;BME280;40468;42.128;24.750;2023-04-22T04:27:22;99512.78;;;12.05;77.07
32875;BME280;40468;42.128;24.750;2023-04-22T04:28:54;99513.59;;;12.05;77.42
32875;BME280;40468;42.128;24.750;2023-04-22T04:30:26;99510.94;;;12.07;77.42
32875;BME280;40468;42.128;24.750;2023-04-22T04:31:58;99516.88;;;12.09;77.54
32875;BME280;40468;42.128;24.750;2023-04-22T04:33:29;99504.84;;;12.06;77.66
32875;BME280;40468;42.128;24.750;2023-04-22T04:35:02;99509.03;;;12.09;77.60
32875;BME280;40468;42.128;24.750;2023-04-22T04:36:34;99515.03;;;12.11;77.89
32875;BME280;40468;42.128;24.750;2023-04-22T04:38:06;99515.81;;;12.13;78.20
32875;BME280;40468;42.128;24.750;2023-04-22T04:39:38;99515.81;;;12.13;78.43
32875;BME280;40468;42.128;24.750;2023-04-22T04:41:11;99516.72;;;12.12;78.16
32875;BME280;40468;42.128;24.750;2023-04-22T04:42:45;99515.09;;;12.10;78.62
32875;BME280;40468;42.128;24.750;2023-04-22T04:44:17;99515.88;;;12.12;78.66
32875;BME280;40468;42.128;24.750;2023-04-22T04:45:50;99519.25;;;12.14;78.55
32875;BME280;40468;42.128;24.750;2023-04-22T04:47:22;99516.63;;;12.14;79.04
32875;BME280;40468;42.128;24.750;2023-04-22T04:48:54;99521.75;;;12.15;78.80
32875;BME280;40468;42.128;24.750;2023-04-22T04:50:27;99466.19;;;11.81;78.95
32875;BME280;40468;42.128;24.750;2023-04-22T04:51:58;99519.25;;;12.14;78.93
32875;BME280;40468;42.128;24.750;2023-04-22T04:53:30;99519.06;;;12.17;79.39
32875;BME280;40468;42.128;24.750;2023-04-22T04:55:02;99524.88;;;12.22;79.09
32875;BME280;40468;42.128;24.750;2023-04-22T04:56:33;99528.16;;;12.25;79.37
32875;BME280;40468;42.128;24.750;2023-04-22T04:58:07;99521.00;;;12.29;79.38
32875;BME280;40468;42.128;24.750;2023-04-22T04:59:37;99517.38;;;12.32;79.17
32875;BME280;40468;42.128;24.750;2023-04-22T05:01:09;99525.03;;;12.35;79.27
32875;BME280;40468;42.128;24.750;2023-04-22T05:02:41;99514.47;;;12.36;78.87
32875;BME280;40468;42.128;24.750;2023-04-22T05:04:13;99524.75;;;12.39;78.74
32875;BME280;40468;42.128;24.750;2023-04-22T05:05:45;99515.25;;;12.38;78.69
32875;BME280;40468;42.128;24.750;2023-04-22T05:07:18;99519.38;;;12.42;79.09
32875;BME280;40468;42.128;24.750;2023-04-22T05:08:50;99523.38;;;12.48;78.77
32875;BME280;40468;42.128;24.750;2023-04-22T05:10:22;99526.75;;;12.50;78.80
32875;BME280;40468;42.128;24.750;2023-04-22T05:11:54;99521.47;;;12.51;78.62
32875;BME280;40468;42.128;24.750;2023-04-22T05:13:27;99528.94;;;12.58;78.93
32875;BME280;40468;42.128;24.750;2023-04-22T05:14:59;99518.84;;;12.51;78.87
32875;BME280;40468;42.128;24.750;2023-04-22T05:16:32;99533.81;;;12.64;78.95
32875;BME280;40468;42.128;24.750;2023-04-22T05:18:04;99527.56;;;12.66;78.48
32875;BME280;40468;42.128;24.750;2023-04-22T05:19:36;99529.53;;;12.77;78.44
32875;BME280;40468;42.128;24.750;2023-04-22T05:21:07;99535.56;;;12.93;78.21
32875;BME280;40468;42.128;24.750;2023-04-22T05:22:39;99528.66;;;13.07;77.69
32875;BME280;40468;42.128;24.750;2023-04-22T05:24:12;99524.56;;;13.17;77.35
32875;BME280;40468;42.128;24.750;2023-04-22T05:25:43;99524.44;;;13.34;76.62
32875;BME280;40468;42.128;24.750;2023-04-22T05:27:15;99526.94;;;13.50;75.96
32875;BME280;40468;42.128;24.750;2023-04-22T05:28:48;99533.75;;;13.67;75.31
32875;BME280;40468;42.128;24.750;2023-04-22T05:30:20;99526.78;;;13.80;75.00
32875;BME280;40468;42.128;24.750;2023-04-22T05:31:52;99521.16;;;13.86;74.55
32875;BME280;40468;42.128;24.750;2023-04-22T05:33:23;99533.63;;;14.10;73.97
32875;BME280;40468;42.128;24.750;2023-04-22T05:34:54;99538.00;;;14.24;73.73
32875;BME280;40468;42.128;24.750;2023-04-22T05:36:26;99536.03;;;14.27;72.83
32875;BME280;40468;42.128;24.750;2023-04-22T05:37:58;99539.38;;;14.29;72.63
32875;BME280;40468;42.128;24.750;2023-04-22T05:39:30;99537.31;;;14.34;72.56
32875;BME280;40468;42.128;24.750;2023-04-22T05:41:02;99534.19;;;14.42;72.29
32875;BME280;40468;42.128;24.750;2023-04-22T05:42:34;99533.78;;;14.48;71.69
32875;BME280;40468;42.128;24.750;2023-04-22T05:44:07;99539.81;;;14.63;71.52
32875;BME280;40468;42.128;24.750;2023-04-22T05:45:39;99532.91;;;14.62;70.94
32875;BME280;40468;42.128;24.750;2023-04-22T05:47:10;99545.50;;;14.70;70.92
32875;BME280;40468;42.128;24.750;2023-04-22T05:48:42;99503.38;;;14.46;70.58
32875;BME280;40468;42.128;24.750;2023-04-22T05:50:13;99534.09;;;14.71;70.55
32875;BME280;40468;42.128;24.750;2023-04-22T05:51:45;99535.34;;;14.78;70.26
32875;BME280;40468;42.128;24.750;2023-04-22T05:53:16;99539.13;;;14.87;69.86
32875;BME280;40468;42.128;24.750;2023-04-22T05:54:48;99533.81;;;14.88;69.76
32875;BME280;40468;42.128;24.750;2023-04-22T05:56:19;99496.56;;;14.70;69.36
32875;BME280;40468;42.128;24.750;2023-04-22T05:57:51;99490.91;;;14.76;69.23
32875;BME280;40468;42.128;24.750;2023-04-22T05:59:24;99544.22;;;15.15;68.52
32875;BME280;40468;42.128;24.750;2023-04-22T06:00:57;99534.97;;;15.22;68.47
32875;BME280;40468;42.128;24.750;2023-04-22T06:02:29;99546.50;;;15.33;68.19
32875;BME280;40468;42.128;24.750;2023-04-22T06:04:00;99538.84;;;15.42;67.98
32875;BME280;40468;42.128;24.750;2023-04-22T06:05:34;99535.47;;;15.53;67.79
32875;BME280;40468;42.128;24.750;2023-04-22T06:07:06;99543.97;;;15.69;67.34
32875;BME280;40468;42.128;24.750;2023-04-22T06:08:38;99516.25;;;15.65;67.25
32875;BME280;40468;42.128;24.750;2023-04-22T06:10:10;99538.66;;;15.95;66.84
32875;BME280;40468;42.128;24.750;2023-04-22T06:11:41;99547.09;;;16.11;66.34
32875;BME280;40468;42.128;24.750;2023-04-22T06:13:13;99535.50;;;16.27;65.94
32875;BME280;40468;42.128;24.750;2023-04-22T06:14:46;99535.78;;;16.35;65.05
32875;BME280;40468;42.128;24.750;2023-04-22T06:16:18;99535.31;;;16.41;64.86
32875;BME280;40468;42.128;24.750;2023-04-22T06:17:49;99541.69;;;16.50;64.38
32875;BME280;40468;42.128;24.750;2023-04-22T06:19:21;99535.13;;;16.55;64.23
32875;BME280;40468;42.128;24.750;2023-04-22T06:20:53;99541.88;;;16.71;63.85
32875;BME280;40468;42.128;24.750;2023-04-22T06:22:25;99538.16;;;16.86;63.53
32875;BME280;40468;42.128;24.750;2023-04-22T06:23:57;99538.06;;;16.99;63.46
32875;BME280;40468;42.128;24.750;2023-04-22T06:25:29;99541.06;;;17.05;62.70
32875;BME280;40468;42.128;24.750;2023-04-22T06:27:01;99534.63;;;17.10;62.31
32875;BME280;40468;42.128;24.750;2023-04-22T06:28:33;99537.47;;;17.18;61.87
32875;BME280;40468;42.128;24.750;2023-04-22T06:30:07;99536.19;;;17.23;61.32
32875;BME280;40468;42.128;24.750;2023-04-22T06:31:39;99538.47;;;17.28;61.05
32875;BME280;40468;42.128;24.750;2023-04-22T06:33:11;99499.09;;;17.15;60.81
32875;BME280;40468;42.128;24.750;2023-04-22T06:34:43;99533.22;;;17.39;60.80
32875;BME280;40468;42.128;24.750;2023-04-22T06:36:15;99529.97;;;17.47;60.41
32875;BME280;40468;42.128;24.750;2023-04-22T06:37:47;99531.28;;;17.52;60.11
32875;BME280;40468;42.128;24.750;2023-04-22T06:39:19;99533.44;;;17.59;60.08
32875;BME280;40468;42.128;24.750;2023-04-22T06:40:51;99533.91;;;17.64;59.76
32875;BME280;40468;42.128;24.750;2023-04-22T06:42:23;99530.81;;;17.70;59.32
32875;BME280;40468;42.128;24.750;2023-04-22T06:43:55;99532.22;;;17.74;58.67
32875;BME280;40468;42.128;24.750;2023-04-22T06:45:28;99535.38;;;17.79;58.24
32875;BME280;40468;42.128;24.750;2023-04-22T06:47:00;99529.75;;;17.84;58.37
32875;BME280;40468;42.128;24.750;2023-04-22T06:48:32;99500.88;;;17.71;58.14
32875;BME280;40468;42.128;24.750;2023-04-22T06:50:05;99522.19;;;17.90;57.83
32875;BME280;40468;42.128;24.750;2023-04-22T06:51:37;99526.16;;;17.85;57.54
32875;BME280;40468;42.128;24.750;2023-04-22T06:53:09;99532.25;;;17.85;57.59
32875;BME280;40468;42.128;24.750;2023-04-22T06:54:41;99534.78;;;17.87;57.49
32875;BME280;40468;42.128;24.750;2023-04-22T06:56:13;99540.97;;;17.86;57.16
32875;BME280;40468;42.128;24.750;2023-04-22T06:57:45;99536.78;;;17.83;56.96
32875;BME280;40468;42.128;24.750;2023-04-22T06:59:17;99537.03;;;17.80;57.06
32875;BME280;40468;42.128;24.750;2023-04-22T07:00:50;99530.81;;;17.81;56.97
32875;BME280;40468;42.128;24.750;2023-04-22T07:02:22;99509.25;;;17.65;57.05
32875;BME280;40468;42.128;24.750;2023-04-22T07:03:53;99532.38;;;17.84;56.72
32875;BME280;40468;42.128;24.750;2023-04-22T07:05:25;99530.00;;;17.81;56.79
32875;BME280;40468;42.128;24.750;2023-04-22T07:06:57;99531.06;;;17.78;56.99
32875;BME280;40468;42.128;24.750;2023-04-22T07:08:29;99540.16;;;17.85;56.80
32875;BME280;40468;42.128;24.750;2023-04-22T07:10:01;99532.72;;;17.90;57.04
32875;BME280;40468;42.128;24.750;2023-04-22T07:11:32;99529.59;;;17.96;56.94
32875;BME280;40468;42.128;24.750;2023-04-22T07:13:04;99541.06;;;18.07;56.45
32875;BME280;40468;42.128;24.750;2023-04-22T07:14:36;99541.69;;;18.10;56.00
32875;BME280;40468;42.128;24.750;2023-04-22T07:16:09;99536.00;;;18.15;55.95
32875;BME280;40468;42.128;24.750;2023-04-22T07:17:41;99510.41;;;18.06;55.96
32875;BME280;40468;42.128;24.750;2023-04-22T07:19:13;99529.75;;;18.27;55.98
32875;BME280;40468;42.128;24.750;2023-04-22T07:20:45;99531.19;;;18.31;55.48
32875;BME280;40468;42.128;24.750;2023-04-22T07:22:17;99533.94;;;18.30;55.00
32875;BME280;40468;42.128;24.750;2023-04-22T07:23:49;99536.81;;;18.27;54.73
32875;BME280;40468;42.128;24.750;2023-04-22T07:25:21;99538.63;;;18.26;54.65
32875;BME280;40468;42.128;24.750;2023-04-22T07:26:53;99532.28;;;18.29;54.60
32875;BME280;40468;42.128;24.750;2023-04-22T07:28:25;99539.09;;;18.31;54.36
32875;BME280;40468;42.128;24.750;2023-04-22T07:29:57;99535.44;;;18.44;54.59
32875;BME280;40468;42.128;24.750;2023-04-22T07:31:30;99546.66;;;18.57;54.34
32875;BME280;40468;42.128;24.750;2023-04-22T07:33:02;99509.78;;;18.46;54.04
32875;BME280;40468;42.128;24.750;2023-04-22T07:34:34;99534.00;;;18.72;53.40
32875;BME280;40468;42.128;24.750;2023-04-22T07:36:06;99520.13;;;18.70;53.55
32875;BME280;40468;42.128;24.750;2023-04-22T07:37:38;99534.44;;;18.88;53.03
32875;BME280;40468;42.128;24.750;2023-04-22T07:39:10;99533.28;;;19.02;52.94
32875;BME280;40468;42.128;24.750;2023-04-22T07:40:42;99533.53;;;19.20;52.33
32875;BME280;40468;42.128;24.750;2023-04-22T07:42:14;99537.47;;;19.35;52.30
32875;BME280;40468;42.128;24.750;2023-04-22T07:43:46;99537.69;;;19.53;51.77
32875;BME280;40468;42.128;24.750;2023-04-22T07:45:18;99538.47;;;19.65;51.69
32875;BME280;40468;42.128;24.750;2023-04-22T07:46:52;99536.56;;;19.76;51.39
32875;BME280;40468;42.128;24.750;2023-04-22T07:48:24;99535.47;;;19.89;51.22
32875;BME280;40468;42.128;24.750;2023-04-22T07:49:56;99540.78;;;19.98;50.43
32875;BME280;40468;42.128;24.750;2023-04-22T07:51:28;99540.66;;;20.10;50.36
32875;BME280;40468;42.128;24.750;2023-04-22T07:53:00;99530.81;;;20.21;50.24
32875;BME280;40468;42.128;24.750;2023-04-22T07:54:32;99537.50;;;20.35;49.91
32875;BME280;40468;42.128;24.750;2023-04-22T07:56:04;99534.72;;;20.46;49.61
32875;BME280;40468;42.128;24.750;2023-04-22T07:57:36;99528.31;;;20.49;49.24
32875;BME280;40468;42.128;24.750;2023-04-22T07:59:09;99537.81;;;20.61;49.44
32875;BME280;40468;42.128;24.750;2023-04-22T08:00:41;99527.91;;;20.73;48.70